createdAt,value
2022-11-18T00:00:23.506Z,177.06
2022-11-18T00:02:29.653Z,180.81
2022-11-18T00:04:35.479Z,169.59
2022-11-18T00:06:42.457Z,175.90
2022-11-18T00:08:50.887Z,168.75
2022-11-18T00:10:59.337Z,146.08
2022-11-18T00:13:18.258Z,153.06
2022-11-18T00:15:28.953Z,152.02
2022-11-18T00:17:37.191Z,139.72
2022-11-18T00:19:44.106Z,143.84
2022-11-18T00:21:50.023Z,142.45
2022-11-18T00:23:55.855Z,137.70
2022-11-18T00:26:09.853Z,140.67
2022-11-18T00:28:15.620Z,139.50
2022-11-18T00:30:23.065Z,139.54
2022-11-18T00:32:29.631Z,138.96
2022-11-18T00:34:35.425Z,148.57
2022-11-18T00:36:43.047Z,142.34
2022-11-18T00:38:49.585Z,198.53
2022-11-18T00:41:03.161Z,203.09
2022-11-18T00:43:08.913Z,150.23
2022-11-18T00:45:15.585Z,150.68
2022-11-18T00:47:21.397Z,147.07
2022-11-18T00:49:28.042Z,162.51
2022-11-18T00:51:34.538Z,201.92
2022-11-18T00:53:40.249Z,192.62
2022-11-18T00:55:46.269Z,192.07
2022-11-18T00:57:52.923Z,195.39
2022-11-18T01:00:09.210Z,206.98
2022-11-18T01:02:33.374Z,200.19
2022-11-18T01:04:39.976Z,198.60
2022-11-18T01:06:45.692Z,178.56
2022-11-18T01:08:51.484Z,143.27
2022-11-18T01:11:18.058Z,160.15
2022-11-18T01:13:24.048Z,143.82
2022-11-18T01:15:32.527Z,138.49
2022-11-18T01:17:45.887Z,129.59
2022-11-18T01:19:51.856Z,138.79
2022-11-18T01:22:09.236Z,140.22
2022-11-18T01:24:22.288Z,139.09
2022-11-18T01:26:28.020Z,134.97
2022-11-18T01:28:33.829Z,133.93
2022-11-18T01:30:44.868Z,143.73
2022-11-18T01:48:08.806Z,215.27
2022-11-18T01:50:19.639Z,216.02
2022-11-18T01:52:26.916Z,206.96
2022-11-18T01:54:39.404Z,213.02
2022-11-18T01:56:53.175Z,212.32
2022-11-18T01:59:08.550Z,216.46
2022-11-18T02:01:17.155Z,207.18
2022-11-18T02:03:33.524Z,213.68
2022-11-18T02:05:46.127Z,201.80
2022-11-18T02:07:54.222Z,203.42
2022-11-18T02:10:11.774Z,217.04
2022-11-18T02:15:14.480Z,165.80
2022-11-18T02:17:44.285Z,159.95
2022-11-18T02:20:21.893Z,154.53
2022-11-18T02:23:00.898Z,153.40
2022-11-18T02:25:24.973Z,163.63
2022-11-18T02:28:20.627Z,160.15
2022-11-18T02:30:29.077Z,159.27
2022-11-18T02:32:45.049Z,151.28
2022-11-18T02:35:05.546Z,152.36
2022-11-18T02:37:25.115Z,148.60
2022-11-18T02:39:41.371Z,161.54
2022-11-18T02:41:52.666Z,146.02
2022-11-18T02:44:07.663Z,145.07
2022-11-18T02:46:26.920Z,137.92
2022-11-18T04:35:23.517Z,167.76
2022-11-18T04:37:30.339Z,162.00
2022-11-18T04:39:36.381Z,164.87
2022-11-18T04:41:54.457Z,158.60
2022-11-18T04:44:13.356Z,170.89
2022-11-18T04:46:19.251Z,176.14
2022-11-18T04:48:27.034Z,173.47
2022-11-18T04:50:42.866Z,175.58
2022-11-18T04:52:48.586Z,176.39
2022-11-18T04:54:54.257Z,176.82
2022-11-18T04:57:01.438Z,171.31
2022-11-18T04:59:08.895Z,183.74
2022-11-18T05:01:14.674Z,186.85
2022-11-18T05:03:21.208Z,193.36
2022-11-18T05:05:26.935Z,191.64
2022-11-18T05:07:35.252Z,187.94
2022-11-18T05:09:41.807Z,190.20
2022-11-18T05:12:01.033Z,186.05
2022-11-18T05:14:06.792Z,185.85
2022-11-18T05:16:13.321Z,177.69
2022-11-18T05:18:19.185Z,189.86
2022-11-18T05:20:25.014Z,187.69
2022-11-18T05:22:40.854Z,178.71
2022-11-18T05:24:49.952Z,184.62
2022-11-18T05:26:56.168Z,182.98
2022-11-18T05:29:09.909Z,185.80
2022-11-18T05:31:19.540Z,198.70
2022-11-18T05:33:32.768Z,202.50
2022-11-18T05:35:40.626Z,202.18
2022-11-18T05:37:48.966Z,165.20
2022-11-18T05:39:54.778Z,158.71
2022-11-18T05:42:19.888Z,165.52
2022-11-18T05:44:28.539Z,160.05
2022-11-18T05:46:35.599Z,160.71
2022-11-18T05:48:42.253Z,164.10
2022-11-18T05:50:54.488Z,175.99
2022-11-18T05:53:02.966Z,174.80
2022-11-18T05:55:12.275Z,171.87
2022-11-18T05:57:18.107Z,174.67
2022-11-18T05:59:24.595Z,172.32
2022-11-18T06:01:40.563Z,176.07
2022-11-18T06:03:46.913Z,176.76
2022-11-18T06:05:56.200Z,176.39
2022-11-18T06:08:12.751Z,177.07
2022-11-18T06:10:27.683Z,181.08
2022-11-18T06:12:48.444Z,182.87
2022-11-18T06:15:03.892Z,181.73
2022-11-18T06:17:21.963Z,190.28
2022-11-18T06:19:34.956Z,188.88
2022-11-18T06:21:41.758Z,192.17
2022-11-18T06:23:51.311Z,197.79
2022-11-18T06:26:02.468Z,197.96
2022-11-18T06:28:09.309Z,192.80
2022-11-18T06:30:17.201Z,187.73
2022-11-18T06:32:29.610Z,196.19
2022-11-18T06:34:41.247Z,198.35
2022-11-18T06:36:47.716Z,205.38
2022-11-18T06:38:56.131Z,207.83
2022-11-18T06:41:09.599Z,207.07
2022-11-18T06:43:28.564Z,210.03
2022-11-18T06:45:34.609Z,221.59
2022-11-18T06:47:38.691Z,226.97
2022-11-18T06:49:44.502Z,221.88
2022-11-18T06:51:50.296Z,215.34
2022-11-18T06:53:59.789Z,217.17
2022-11-18T06:56:20.053Z,209.83
2022-11-18T06:58:25.745Z,215.84
2022-11-18T07:00:32.378Z,213.07
2022-11-18T07:02:39.930Z,216.30
2022-11-18T07:04:45.651Z,207.66
2022-11-18T07:06:52.499Z,215.02
2022-11-18T07:09:03.852Z,214.26
2022-11-18T07:11:14.781Z,206.42
2022-11-18T07:13:21.347Z,194.88
2022-11-18T07:15:42.489Z,209.61
2022-11-18T07:17:48.171Z,207.14
2022-11-18T07:19:56.525Z,202.83
2022-11-18T07:22:02.470Z,200.72
2022-11-18T07:24:18.729Z,208.75
2022-11-18T07:26:26.244Z,202.40
2022-11-18T07:28:33.745Z,192.13
2022-11-18T07:30:39.494Z,194.09
2022-11-18T07:32:46.023Z,216.20
2022-11-18T07:34:55.626Z,223.85
2022-11-18T07:37:01.345Z,220.14
2022-11-18T07:39:11.569Z,215.30
2022-11-18T07:41:20.072Z,194.76
2022-11-18T07:43:25.939Z,206.52
2022-11-18T07:45:32.647Z,200.16
2022-11-18T07:47:38.408Z,189.80
2022-11-18T07:49:44.227Z,171.86
2022-11-18T07:51:50.769Z,190.12
2022-11-18T07:53:57.507Z,190.29
2022-11-18T07:56:13.495Z,187.20
2022-11-18T07:58:20.052Z,188.20
2022-11-18T08:00:26.434Z,201.74
2022-11-18T08:02:32.360Z,194.41
2022-11-18T08:04:40.979Z,198.21
2022-11-18T08:06:46.751Z,186.08
2022-11-18T08:08:52.556Z,210.87
2022-11-18T08:11:00.104Z,199.77
2022-11-18T08:13:08.510Z,178.84
2022-11-18T08:15:20.638Z,165.06
2022-11-18T08:17:27.304Z,151.58
2022-11-18T08:19:37.516Z,155.27
2022-11-18T08:21:43.279Z,166.80
2022-11-18T08:23:54.205Z,170.51
2022-11-18T08:26:07.092Z,171.88
2022-11-18T08:28:17.704Z,169.77
2022-11-18T08:30:24.655Z,189.33
2022-11-18T08:32:30.780Z,207.52
2022-11-18T08:34:36.716Z,210.16
2022-11-18T08:36:43.773Z,214.82
2022-11-18T08:38:49.440Z,185.18
2022-11-18T08:40:55.895Z,200.70
2022-11-18T08:43:02.391Z,209.90
2022-11-18T08:45:12.290Z,222.80
2022-11-18T08:47:20.875Z,197.01
2022-11-18T08:49:32.235Z,207.85
2022-11-18T08:51:38.255Z,192.32
2022-11-18T08:53:43.970Z,195.09
2022-11-18T08:55:59.580Z,185.97
2022-11-18T08:58:05.305Z,189.85
2022-11-18T09:00:16.511Z,198.32
2022-11-18T09:02:26.774Z,194.86
2022-11-18T09:04:32.748Z,186.06
2022-11-18T09:06:46.462Z,188.92
2022-11-18T09:08:53.207Z,183.34
2022-11-18T09:10:58.986Z,168.67
2022-11-18T09:13:25.271Z,166.83
2022-11-18T09:15:36.946Z,167.63
2022-11-18T09:17:42.644Z,179.51
2022-11-18T09:19:48.643Z,186.24
2022-11-18T09:22:02.923Z,197.85
2022-11-18T09:24:17.076Z,199.85
2022-11-18T09:26:26.719Z,200.59
2022-11-18T09:28:36.211Z,180.58
2022-11-18T09:30:46.326Z,203.40
2022-11-18T09:32:58.953Z,174.54
2022-11-18T09:35:05.990Z,199.13
2022-11-18T09:39:16.359Z,189.64
2022-11-18T09:41:46.784Z,210.16
2022-11-18T09:44:16.798Z,213.16
2022-11-18T09:46:36.861Z,224.86
2022-11-18T09:48:55.048Z,210.35
2022-11-18T09:51:01.464Z,205.27
2022-11-18T09:53:22.118Z,193.78
2022-11-18T09:55:33.470Z,205.80
2022-11-18T09:57:46.963Z,201.85
2022-11-18T09:59:54.961Z,201.96
2022-11-18T10:02:29.875Z,187.09
2022-11-18T10:04:35.584Z,200.13
2022-11-18T10:06:42.295Z,208.59
2022-11-18T10:09:16.366Z,212.04
2022-11-18T10:11:31.920Z,221.10
2022-11-18T10:13:58.582Z,245.38
2022-11-18T10:16:30.665Z,223.24
2022-11-18T10:19:00.334Z,205.61
2022-11-18T10:21:27.553Z,186.25
2022-11-18T10:23:54.094Z,202.72
2022-11-18T10:25:59.959Z,194.58
2022-11-18T10:28:29.701Z,192.72
2022-11-18T10:30:35.822Z,206.38
2022-11-18T10:32:58.109Z,203.38
2022-11-18T10:35:04.611Z,206.12
2022-11-18T10:37:38.655Z,201.77
2022-11-18T10:39:56.255Z,222.61
2022-11-18T10:42:09.775Z,224.63
2022-11-18T10:44:40.329Z,223.78
2022-11-18T10:46:46.840Z,228.58
2022-11-18T10:49:19.016Z,275.50
2022-11-18T10:51:28.022Z,283.80
2022-11-18T10:53:39.163Z,292.49
2022-11-18T10:56:01.122Z,295.46
2022-11-18T10:58:22.234Z,296.53
2022-11-18T11:00:48.647Z,287.84
2022-11-18T11:02:56.394Z,289.23
2022-11-18T11:05:07.495Z,290.40
2022-11-18T11:07:32.284Z,302.48
2022-11-18T11:09:45.247Z,330.08
2022-11-18T11:12:04.980Z,304.04
2022-11-18T11:14:26.503Z,303.93
2022-11-18T11:16:50.993Z,306.83
2022-11-18T11:19:05.297Z,285.44
2022-11-18T11:21:17.793Z,287.25
2022-11-18T11:23:28.138Z,282.56
2022-11-18T11:28:30.535Z,295.24
2022-11-18T11:30:49.207Z,296.46
2022-11-18T11:33:24.996Z,301.96
2022-11-18T11:35:45.733Z,297.00
2022-11-18T11:37:58.893Z,310.14
2022-11-18T11:40:29.608Z,323.52
2022-11-18T11:42:59.126Z,323.33
2022-11-18T11:45:27.033Z,332.65
2022-11-18T11:47:57.166Z,330.83
2022-11-18T11:50:25.547Z,325.17
2022-11-18T11:52:48.403Z,317.31
2022-11-18T11:55:18.765Z,336.80
2022-11-18T11:57:48.252Z,301.32
2022-11-18T12:00:08.030Z,304.54
2022-11-18T12:02:56.625Z,291.96
2022-11-18T12:05:24.276Z,290.20
2022-11-18T12:07:41.321Z,299.51
2022-11-18T12:10:23.989Z,307.16
2022-11-18T12:12:47.818Z,286.28
2022-11-18T12:15:07.909Z,290.71
2022-11-18T12:17:29.003Z,298.48
2022-11-18T12:19:42.540Z,293.26
2022-11-18T12:22:07.829Z,297.31
2022-11-18T12:24:37.172Z,287.69
2022-11-18T12:26:43.997Z,304.06
2022-11-18T12:28:50.219Z,312.85
2022-11-18T12:31:39.069Z,290.71
2022-11-18T12:33:48.320Z,313.53
2022-11-18T12:35:55.299Z,317.82
2022-11-18T12:38:06.193Z,300.35
2022-11-18T12:40:33.460Z,302.19
2022-11-18T12:43:00.988Z,306.41
2022-11-18T12:46:03.118Z,313.97
2022-11-18T12:48:46.255Z,319.89
2022-11-18T12:50:54.591Z,322.61
2022-11-18T12:53:00.255Z,303.38
2022-11-18T12:55:21.701Z,309.00
2022-11-18T12:57:33.189Z,295.79
2022-11-18T12:59:41.659Z,286.01
2022-11-18T13:01:48.443Z,282.89
2022-11-18T13:03:55.630Z,288.18
2022-11-18T13:06:09.547Z,299.95
2022-11-18T13:08:21.057Z,292.35
2022-11-18T13:10:35.250Z,322.19
2022-11-18T13:12:41.111Z,301.65
2022-11-18T13:15:01.292Z,288.58
2022-11-18T13:17:43.423Z,266.71
2022-11-18T13:20:01.113Z,274.60
2022-11-18T13:22:31.583Z,263.14
2022-11-18T13:24:48.882Z,249.84
2022-11-18T13:27:04.842Z,284.53
2022-11-18T13:29:38.837Z,285.14
2022-11-18T13:32:05.740Z,290.40
2022-11-18T13:34:21.792Z,290.21
2022-11-18T13:36:29.607Z,270.71
2022-11-18T13:38:35.510Z,262.58
2022-11-18T13:41:04.726Z,268.07
2022-11-18T13:43:15.565Z,290.12
2022-11-18T13:45:23.323Z,278.87
2022-11-18T13:47:44.607Z,267.96
2022-11-18T13:50:03.467Z,264.08
2022-11-18T13:52:16.292Z,267.78
2022-11-18T13:54:30.340Z,287.38
2022-11-18T13:56:37.078Z,280.39
2022-11-18T14:01:26.676Z,274.06
2022-11-18T14:03:39.862Z,251.89
2022-11-18T14:05:45.523Z,239.51
2022-11-18T14:08:09.177Z,263.92
2022-11-18T14:10:19.294Z,266.21
2022-11-18T14:12:29.196Z,258.56
2022-11-18T14:14:41.458Z,270.59
2022-11-18T14:16:47.292Z,283.46
2022-11-18T14:18:55.110Z,285.80
2022-11-18T14:21:04.616Z,293.37
2022-11-18T14:23:20.932Z,286.50
2022-11-18T14:25:34.355Z,296.94
2022-11-18T14:27:45.590Z,300.21
2022-11-18T14:29:55.805Z,304.02
2022-11-18T14:32:23.602Z,295.35
2022-11-18T14:34:31.300Z,285.01
2022-11-18T14:40:49.524Z,291.16
2022-11-18T14:42:55.241Z,305.20
2022-11-18T14:45:01.048Z,310.66
2022-11-18T14:47:27.072Z,324.47
2022-11-18T14:49:34.939Z,306.78
2022-11-18T14:51:40.722Z,309.20
2022-11-18T14:53:49.863Z,311.16
2022-11-18T14:56:01.595Z,313.01
2022-11-18T14:58:07.354Z,303.32
2022-11-18T15:00:19.830Z,288.07
2022-11-18T15:02:26.606Z,283.35
2022-11-18T15:04:32.363Z,293.07
2022-11-18T15:06:40.076Z,296.48
2022-11-18T15:08:51.642Z,286.31
2022-11-18T15:10:57.298Z,300.20
2022-11-18T15:13:04.232Z,369.87
2022-11-18T15:15:11.031Z,411.29
2022-11-18T15:17:22.474Z,307.96
2022-11-18T15:19:32.281Z,323.14
2022-11-18T15:21:38.117Z,310.89
2022-11-18T15:23:44.276Z,278.44
2022-11-18T15:25:53.462Z,280.35
2022-11-18T15:27:59.180Z,283.65
2022-11-18T15:30:05.553Z,273.15
2022-11-18T15:32:18.790Z,241.98
2022-11-18T15:34:25.001Z,240.06
2022-11-18T15:36:37.981Z,244.26
2022-11-18T15:38:56.015Z,227.82
2022-11-18T15:41:04.380Z,216.79
2022-11-18T15:43:10.216Z,201.55
2022-11-18T15:45:16.782Z,202.34
2022-11-18T15:47:22.604Z,229.24
2022-11-18T15:49:28.669Z,244.41
2022-11-18T15:51:35.330Z,229.86
2022-11-18T15:53:41.268Z,236.10
2022-11-18T15:55:47.076Z,257.78
2022-11-18T15:57:56.241Z,255.14
2022-11-18T16:00:08.111Z,232.88
2022-11-18T16:02:18.204Z,275.25
2022-11-18T16:04:24.787Z,269.52
2022-11-18T16:06:31.030Z,261.69
2022-11-18T16:08:36.709Z,278.47
2022-11-18T16:10:55.570Z,351.50
2022-11-18T16:13:03.879Z,303.50
2022-11-18T16:15:29.331Z,258.97
2022-11-18T16:17:38.202Z,252.70
2022-11-18T16:19:44.011Z,231.02
2022-11-18T16:21:53.439Z,243.04
2022-11-18T16:24:05.974Z,214.66
2022-11-18T16:26:11.750Z,217.81
2022-11-18T16:28:20.159Z,227.82
2022-11-18T16:30:39.168Z,227.01
2022-11-18T16:32:44.812Z,244.81
2022-11-18T16:34:51.795Z,241.88
2022-11-18T16:37:02.848Z,267.06
2022-11-18T16:39:32.019Z,258.63
2022-11-18T16:42:08.050Z,236.89
2022-11-18T16:44:19.498Z,245.29
2022-11-18T16:46:25.147Z,247.22
2022-11-18T16:48:30.995Z,259.04
2022-11-18T16:52:05.021Z,241.79
2022-11-18T16:54:20.990Z,253.36
2022-11-18T16:56:29.916Z,264.40
2022-11-18T16:58:42.329Z,266.45
2022-11-18T17:01:16.835Z,286.84
2022-11-18T17:03:14.517Z,289.50
2022-11-18T17:05:20.308Z,261.77
2022-11-18T17:07:31.596Z,248.64
2022-11-18T17:09:41.258Z,247.66
2022-11-18T17:11:47.434Z,254.94
2022-11-18T17:13:58.045Z,257.34
2022-11-18T17:16:07.997Z,274.42
2022-11-18T17:18:13.761Z,261.44
2022-11-18T17:20:22.238Z,231.31
2022-11-18T17:22:30.721Z,244.50
2022-11-18T17:24:36.557Z,246.22
2022-11-18T17:28:10.811Z,271.34
2022-11-18T17:30:18.148Z,252.35
2022-11-18T17:32:23.803Z,310.22
2022-11-18T17:34:29.565Z,281.16
2022-11-18T17:36:36.261Z,304.02
2022-11-18T17:38:45.120Z,314.83
2022-11-18T17:40:57.714Z,314.79
2022-11-18T17:43:01.809Z,307.79
2022-11-18T17:45:12.725Z,343.46
2022-11-18T17:47:21.240Z,349.22
2022-11-18T17:49:27.915Z,340.74
2022-11-18T17:51:34.801Z,350.43
2022-11-18T17:53:43.499Z,379.66
2022-11-18T17:55:50.832Z,315.59
2022-11-18T17:57:59.261Z,338.82
2022-11-18T18:00:05.686Z,331.45
2022-11-18T18:02:18.891Z,325.69
2022-11-18T18:04:24.976Z,319.80
2022-11-18T18:06:30.720Z,338.42
2022-11-18T18:08:37.993Z,329.65
2022-11-18T18:10:46.377Z,326.50
2022-11-18T18:13:04.640Z,289.23
2022-11-18T18:15:12.480Z,279.57
2022-11-18T18:17:21.247Z,283.95
2022-11-18T18:19:28.331Z,293.82
2022-11-18T18:21:35.861Z,280.34
2022-11-18T18:23:41.663Z,289.98
2022-11-18T18:25:47.378Z,274.04
2022-11-18T18:27:54.056Z,275.51
2022-11-18T18:29:59.810Z,260.61
2022-11-18T18:32:06.458Z,267.20
2022-11-18T18:34:15.700Z,279.31
2022-11-18T18:36:25.345Z,302.04
2022-11-18T18:38:34.533Z,287.38
2022-11-18T18:40:41.100Z,279.16
2022-11-18T18:45:01.695Z,271.75
2022-11-18T18:47:08.335Z,278.42
2022-11-18T18:49:20.631Z,295.87
2022-11-18T18:51:26.894Z,303.19
2022-11-18T18:53:34.711Z,303.79
2022-11-18T18:55:44.718Z,298.69
2022-11-18T18:57:50.857Z,298.92
2022-11-18T19:00:00.046Z,301.26
2022-11-18T19:02:06.821Z,306.39
2022-11-18T19:04:16.786Z,289.04
2022-11-18T19:06:52.003Z,273.94
2022-11-18T19:08:52.902Z,280.14
2022-11-18T19:10:58.676Z,276.92
2022-11-18T19:13:02.681Z,277.34
2022-11-18T19:15:14.039Z,274.07
2022-11-18T19:17:19.960Z,259.98
2022-11-18T19:19:42.901Z,236.07
2022-11-18T19:21:50.217Z,244.79
2022-11-18T19:23:56.803Z,260.26
2022-11-18T19:26:03.536Z,253.35
2022-11-18T19:28:09.313Z,244.64
2022-11-18T19:30:17.956Z,255.65
2022-11-18T19:32:24.619Z,271.21
2022-11-18T19:34:30.350Z,272.85
2022-11-18T19:36:37.432Z,278.32
2022-11-18T19:38:44.537Z,235.83
2022-11-18T19:40:50.490Z,208.04
2022-11-18T19:42:56.867Z,210.94
2022-11-18T19:45:03.481Z,215.00
2022-11-18T19:47:11.920Z,204.25
2022-11-18T19:49:18.070Z,193.08
2022-11-18T19:51:26.107Z,191.82
2022-11-18T19:53:39.264Z,195.02
2022-11-18T19:55:45.016Z,192.46
2022-11-18T19:57:51.731Z,180.78
2022-11-18T19:59:57.545Z,180.66
2022-11-18T20:02:03.705Z,190.64
2022-11-18T20:04:12.962Z,199.29
2022-11-18T20:06:20.659Z,198.74
2022-11-18T20:08:28.233Z,209.56
2022-11-18T20:10:35.090Z,217.99
2022-11-18T20:12:40.942Z,217.50
2022-11-18T20:14:46.698Z,221.75
2022-11-18T20:16:54.599Z,211.96
2022-11-18T20:19:09.315Z,197.82
2022-11-18T20:21:23.037Z,213.96
2022-11-18T20:23:29.513Z,208.43
2022-11-18T20:25:35.287Z,207.85
2022-11-18T20:27:41.166Z,191.24
2022-11-18T20:29:48.448Z,194.86
2022-11-18T20:31:55.287Z,183.04
2022-11-18T20:34:01.107Z,195.64
2022-11-18T20:36:10.501Z,183.30
2022-11-18T20:38:18.910Z,190.65
2022-11-18T20:40:24.652Z,169.36
2022-11-18T20:42:44.221Z,170.62
2022-11-18T20:44:50.334Z,164.77
2022-11-18T20:46:56.072Z,154.80
2022-11-18T20:49:19.541Z,159.79
2022-11-18T20:51:29.061Z,146.90
2022-11-18T20:53:38.943Z,158.96
2022-11-18T20:55:44.917Z,163.95
2022-11-18T20:57:51.663Z,164.60
2022-11-18T20:59:57.497Z,155.21
2022-11-18T21:02:03.488Z,170.60
2022-11-18T21:04:10.071Z,174.49
2022-11-18T21:06:17.880Z,173.46
2022-11-18T21:08:23.706Z,175.42
2022-11-18T21:10:33.568Z,162.84
2022-11-18T21:12:59.368Z,167.46
2022-11-18T21:15:02.914Z,167.36
2022-11-18T21:17:09.539Z,169.68
2022-11-18T21:19:16.807Z,164.02
2022-11-18T21:21:40.689Z,163.37
2022-11-18T21:23:47.356Z,175.94
2022-11-18T21:25:55.940Z,186.61
2022-11-18T21:28:02.093Z,187.52
2022-11-18T21:30:10.817Z,186.69
2022-11-18T21:32:19.067Z,190.00
2022-11-18T21:34:25.627Z,179.14
2022-11-18T21:36:32.654Z,184.69
2022-11-18T21:38:38.445Z,183.60
2022-11-18T21:40:44.297Z,169.42
2022-11-18T21:42:58.128Z,167.33
2022-11-18T21:45:03.946Z,175.38
2022-11-18T21:47:09.650Z,172.91
2022-11-18T21:49:16.612Z,178.22
2022-11-18T21:51:25.462Z,155.95
2022-11-18T21:53:32.069Z,159.32
2022-11-18T21:55:38.629Z,173.48
2022-11-18T21:57:44.612Z,163.48
2022-11-18T21:59:56.296Z,153.92
2022-11-18T22:02:02.833Z,155.28
2022-11-18T22:04:29.077Z,156.73
2022-11-18T22:06:37.153Z,148.17
2022-11-18T22:08:45.391Z,170.15
2022-11-18T22:10:51.144Z,166.40
2022-11-18T22:12:56.939Z,157.36
2022-11-18T22:15:06.273Z,160.34
2022-11-18T22:17:12.521Z,169.31
2022-11-18T22:19:18.170Z,171.42
2022-11-18T22:21:26.672Z,170.50
2022-11-18T22:23:35.443Z,168.36
2022-11-18T22:25:41.244Z,170.21
2022-11-18T22:27:47.748Z,171.73
2022-11-18T22:29:53.498Z,167.38
2022-11-18T22:32:02.070Z,165.42
2022-11-18T22:34:08.726Z,176.16
2022-11-18T22:36:17.998Z,181.27
2022-11-18T22:38:23.704Z,183.03
2022-11-18T22:40:30.362Z,187.28
2022-11-18T22:42:48.337Z,191.36
2022-11-18T22:44:54.090Z,191.94
2022-11-18T22:47:03.293Z,193.69
2022-11-18T22:49:10.921Z,195.61
2022-11-18T22:51:16.690Z,195.94
2022-11-18T22:53:23.334Z,201.28
2022-11-18T22:55:29.094Z,202.34
2022-11-18T22:57:36.962Z,209.62
2022-11-18T22:59:43.584Z,213.92
2022-11-18T23:01:49.350Z,216.19
2022-11-18T23:03:57.723Z,219.69
2022-11-18T23:06:06.236Z,217.82
2022-11-18T23:08:11.938Z,222.64
2022-11-18T23:10:17.896Z,214.04
2022-11-18T23:12:36.897Z,223.16
2022-11-18T23:14:42.690Z,228.96
2022-11-18T23:16:48.634Z,222.23
2022-11-18T23:18:57.728Z,208.68
2022-11-18T23:21:05.891Z,209.59
2022-11-18T23:23:11.616Z,205.84
2022-11-18T23:25:18.441Z,200.15
2022-11-18T23:27:24.132Z,213.10
2022-11-18T23:29:30.051Z,214.59
2022-11-18T23:31:37.097Z,205.56
2022-11-18T23:33:44.570Z,209.19
2022-11-18T23:35:57.872Z,207.04
2022-11-18T23:38:04.406Z,205.57
2022-11-18T23:40:12.536Z,207.71
2022-11-18T23:42:18.217Z,203.14
2022-11-18T23:44:45.032Z,209.00
2022-11-18T23:46:50.730Z,203.34
2022-11-18T23:48:57.059Z,207.77
2022-11-18T23:51:09.642Z,191.06
2022-11-18T23:53:15.378Z,191.76
2022-11-18T23:55:21.114Z,193.66
2022-11-18T23:57:30.545Z,199.39
2022-11-18T23:59:36.756Z,200.95
